Time;durP1;ratioP1;P1;durP2;ratioP2;P2;SDS_P1;SDS_P2;PMS_P1;PMS_P2;Temp;Humidity;BMP_temperature;BMP_pressure;BME280_temperature;BME280_humidity;BME280_pressure;Samples;Min_cycle;Max_cycle;Signal;HPM_P1;HPM_P2
2023/10/23 00:00:14;;;;;;;4.93;3.50;;;;;;;;;;4903426;29;20507;-76
2023/10/23 00:02:40;;;;;;;5.43;2.53;;;;;;;;;;4919189;29;20043;-75
2023/10/23 00:05:07;;;;;;;6.30;3.25;;;;;;;;;;4902755;29;20044;-75
2023/10/23 00:07:33;;;;;;;5.35;2.75;;;;;;;;;;4918872;29;20043;-75
2023/10/23 00:09:59;;;;;;;5.03;2.80;;;;;;;;;;4918780;29;20035;-75
2023/10/23 00:12:25;;;;;;;5.18;3.03;;;;;;;;;;4903224;29;20373;-75
2023/10/23 00:14:51;;;;;;;5.30;3.03;;;;;;;;;;4902996;29;20046;-75
2023/10/23 00:17:17;;;;;;;5.97;3.00;;;;;;;;;;4903290;29;20043;-75
2023/10/23 00:19:43;;;;;;;4.38;3.00;;;;;;;;;;4902879;29;20122;-76
2023/10/23 00:22:09;;;;;;;7.40;3.10;;;;;;;;;;4902877;29;20086;-75
2023/10/23 00:24:36;;;;;;;5.80;3.00;;;;;;;;;;4916063;29;20048;-75
2023/10/23 00:27:02;;;;;;;7.18;3.15;;;;;;;;;;4918654;29;20360;-78
2023/10/23 00:29:28;;;;;;;3.90;2.85;;;;;;;;;;4886054;29;20122;-79
2023/10/23 00:31:54;;;;;;;5.78;2.90;;;;;;;;;;4918470;29;20048;-79
2023/10/23 00:34:21;;;;;;;5.18;3.20;;;;;;;;;;4915893;29;20151;-79
2023/10/23 00:36:47;;;;;;;6.90;3.60;;;;;;;;;;4888245;29;20068;-79
2023/10/23 00:39:14;;;;;;;4.43;3.22;;;;;;;;;;4889347;29;20465;-79
2023/10/23 00:41:42;;;;;;;7.68;3.55;;;;;;;;;;4878679;29;20756;-79
2023/10/23 00:44:08;;;;;;;5.57;3.25;;;;;;;;;;4918592;29;20054;-79
2023/10/23 00:46:34;;;;;;;6.97;3.60;;;;;;;;;;4902363;29;20102;-79
2023/10/23 00:49:01;;;;;;;4.03;3.05;;;;;;;;;;4889171;29;20511;-79
2023/10/23 00:51:28;;;;;;;4.30;3.42;;;8.80;99.90;;;;;;4902093;29;20130;-79
2023/10/23 00:53:55;;;;;;;7.05;3.40;;;;;;;;;;4917871;29;20587;-79
2023/10/23 00:56:21;;;;;;;7.07;3.25;;;;;;;;;;4917595;29;20050;-78
2023/10/23 00:58:47;;;;;;;4.97;3.60;;;;;;;;;;4918052;29;20043;-78
2023/10/23 01:01:13;;;;;;;5.38;3.50;;;;;;;;;;4917563;29;20043;-79
2023/10/23 01:03:40;;;;;;;5.90;3.35;;;9.00;99.90;;;;;;4884760;29;20040;-79
2023/10/23 01:06:06;;;;;;;5.53;3.28;;;;;;;;;;4874747;29;20075;-79
2023/10/23 01:08:33;;;;;;;5.85;3.47;;;;;;;;;;4917793;29;20118;-79
2023/10/23 01:10:59;;;;;;;5.20;3.67;;;;;;;;;;4917422;29;20066;-79
2023/10/23 01:13:26;;;;;;;5.22;3.38;;;;;;;;;;4917950;29;20392;-79
2023/10/23 01:15:52;;;;;;;4.88;3.40;;;;;;;;;;4917572;29;20086;-79
2023/10/23 01:18:18;;;;;;;5.05;3.60;;;;;;;;;;4917126;29;20059;-79
2023/10/23 01:20:45;;;;;;;6.18;3.03;;;;;;;;;;4917795;29;20384;-79
2023/10/23 01:23:11;;;;;;;6.20;3.42;;;;;;;;;;4917943;29;20039;-79
2023/10/23 01:25:38;;;;;;;6.25;3.55;;;;;;;;;;4901770;29;20039;-79
2023/10/23 01:28:04;;;;;;;6.93;3.65;;;;;;;;;;4901613;29;20090;-78
2023/10/23 01:30:31;;;;;;;7.28;3.60;;;;;;;;;;4917392;29;20051;-79
2023/10/23 01:32:57;;;;;;;4.97;3.47;;;;;;;;;;4917423;29;20110;-79
2023/10/23 01:35:23;;;;;;;4.88;3.75;;;;;;;;;;4901569;29;20040;-79
2023/10/23 01:37:50;;;;;;;4.05;3.50;;;;;;;;;;4900804;29;20060;-79
2023/10/23 01:40:16;;;;;;;4.80;3.38;;;;;;;;;;4917382;29;20098;-76
2023/10/23 01:42:43;;;;;;;5.78;3.47;;;;;;;;;;4901725;29;20087;-75
2023/10/23 01:45:09;;;;;;;6.82;4.10;;;;;;;;;;4917260;29;20071;-75
2023/10/23 01:47:35;;;;;;;8.05;3.92;;;;;;;;;;4901417;29;20046;-75
2023/10/23 01:50:01;;;;;;;6.13;4.43;;;;;;;;;;4901752;29;20054;-75
2023/10/23 01:52:27;;;;;;;8.00;5.38;;;;;;;;;;4917607;29;20130;-75
2023/10/23 01:54:53;;;;;;;5.10;4.60;;;;;;;;;;4917032;29;20044;-76
2023/10/23 01:57:20;;;;;;;8.30;5.07;;;;;;;;;;4917255;29;20481;-75
2023/10/23 01:59:46;;;;;;;6.85;4.95;;;;;;;;;;4916992;29;20126;-75
2023/10/23 02:02:12;;;;;;;6.57;5.55;;;;;;;;;;4916721;29;20097;-70
2023/10/23 02:04:39;;;;;;;7.57;5.15;;;;;;;;;;4901439;29;20039;-75
2023/10/23 02:07:06;;;;;;;5.50;4.50;;;;;;;;;;4916098;29;20047;-75
2023/10/23 02:09:32;;;;;;;7.25;5.25;;;;;;;;;;4920414;29;20039;-75
2023/10/23 02:11:58;;;;;;;7.85;4.90;;;;;;;;;;4919867;29;20090;-75
2023/10/23 02:14:24;;;;;;;6.07;5.13;;;;;;;;;;4920567;29;20032;-75
2023/10/23 02:16:51;;;;;;;10.65;5.35;;;;;;;;;;4920965;29;20046;-76
2023/10/23 02:19:17;;;;;;;6.25;4.82;;;;;;;;;;4920026;29;20161;-75
2023/10/23 02:21:49;;;;;;;7.05;5.30;;;;;;;;;;4888035;29;20433;-79
2023/10/23 02:24:15;;;;;;;8.32;5.40;;;;;;;;;;4920800;29;20043;-79
2023/10/23 02:26:41;;;;;;;7.53;5.30;;;;;;;;;;4920330;29;20051;-79
2023/10/23 02:29:08;;;;;;;7.43;5.40;;;;;;;;;;4904670;29;20536;-79
2023/10/23 02:31:36;;;;;;;6.97;5.55;;;;;;;;;;4920858;29;20035;-79
2023/10/23 02:34:02;;;;;;;8.93;5.40;;;;;;;;;;4904569;29;20508;-79
2023/10/23 02:36:28;;;;;;;6.63;5.10;;;;;;;;;;4920976;29;20035;-79
2023/10/23 02:38:54;;;;;;;9.07;5.80;;;;;;;;;;4920627;29;20059;-79
2023/10/23 02:41:20;;;;;;;8.88;5.70;;;;;;;;;;4901092;29;20047;-75
2023/10/23 02:43:49;;;;;;;7.82;6.47;;;8.70;99.90;;;;;;4905029;29;20044;-75
2023/10/23 02:46:15;;;;;;;6.78;5.93;;;;;;;;;;4920699;29;20110;-75
2023/10/23 02:48:41;;;;;;;7.88;5.43;;;;;;;;;;4923067;29;20055;-75
2023/10/23 02:51:08;;;;;;;7.95;6.38;;;;;;;;;;4920357;29;20048;-75
2023/10/23 02:53:34;;;;;;;6.93;5.85;;;;;;;;;;4904740;29;20456;-75
2023/10/23 02:56:00;;;;;;;7.22;5.65;;;;;;;;;;4920546;29;20058;-75
2023/10/23 02:58:26;;;;;;;6.40;5.40;;;;;;;;;;4903391;29;20099;-75
2023/10/23 03:00:52;;;;;;;7.10;5.63;;;;;;;;;;4919521;29;20040;-79
2023/10/23 03:03:18;;;;;;;7.40;5.50;;;;;;;;;;4892931;29;20032;-79
2023/10/23 03:05:44;;;;;;;9.05;6.70;;;;;;;;;;4920427;29;20086;-79
2023/10/23 03:08:10;;;;;;;7.72;6.30;;;;;;;;;;4904879;29;20054;-79
2023/10/23 03:10:36;;;;;;;7.68;6.18;;;;;;;;;;4904053;29;20127;-78
2023/10/23 03:13:03;;;;;;;7.03;5.53;;;;;;;;;;4890814;29;20051;-78
2023/10/23 03:15:29;;;;;;;41.38;6.30;;;;;;;;;;4919830;29;20051;-79
2023/10/23 03:17:55;;;;;;;16.55;6.22;;;;;;;;;;4903301;29;20397;-78
2023/10/23 03:20:21;;;;;;;7.07;5.55;;;;;;;;;;4887852;29;20091;-79
2023/10/23 03:22:47;;;;;;;6.53;5.72;;;;;;;;;;4894831;29;20044;-75
2023/10/23 03:25:13;;;;;;;6.63;5.70;;;;;;;;;;4919403;29;20481;-75
2023/10/23 03:27:39;;;;;;;7.55;5.45;;;;;;;;;;4919390;29;20496;-75
2023/10/23 03:30:06;;;;;;;5.88;4.72;;;;;;;;;;4919103;29;20519;-75
2023/10/23 03:32:32;;;;;;;6.65;5.25;;;;;;;;;;4903616;29;20040;-75
2023/10/23 03:35:00;;;;;;;7.47;5.30;;;;;;;;;;4919259;29;20047;-75
2023/10/23 03:37:26;;;;;;;6.57;4.95;;;;;;;;;;4917997;29;20584;-75
2023/10/23 03:39:52;;;;;;;7.85;5.13;;;;;;;;;;4918675;29;20051;-75
2023/10/23 03:42:18;;;;;;;7.85;5.10;;;;;;;;;;4919164;29;20046;-79
2023/10/23 03:44:44;;;;;;;6.20;4.50;;;;;;;;;;4873749;29;20437;-79
2023/10/23 03:47:10;;;;;;;8.82;4.68;;;;;;;;;;4903415;29;20036;-79
2023/10/23 03:49:36;;;;;;;5.88;4.60;;;;;;;;;;4903320;29;20556;-75
2023/10/23 03:52:02;;;;;;;6.07;5.30;;;8.60;99.90;;;;;;4903606;29;20139;-75
2023/10/23 03:54:28;;;;;;;7.07;5.35;;;;;;;;;;4901852;29;20525;-75
2023/10/23 03:56:55;;;;;;;6.53;5.57;;;;;;;;;;4887148;29;20080;-75
2023/10/23 03:59:21;;;;;;;6.82;5.15;;;;;;;;;;4918873;29;20039;-76
2023/10/23 04:01:47;;;;;;;6.97;5.63;;;;;;;;;;4903193;29;20046;-76
2023/10/23 04:04:13;;;;;;;8.60;5.15;;;;;;;;;;4919000;29;20039;-76
2023/10/23 04:06:39;;;;;;;6.80;5.28;;;;;;;;;;4903308;29;20032;-76
2023/10/23 04:09:06;;;;;;;6.82;5.32;;;;;;;;;;4918946;29;20068;-76
2023/10/23 04:11:32;;;;;;;7.22;5.35;;;;;;;;;;4919129;29;20059;-76
2023/10/23 04:13:58;;;;;;;5.13;4.57;;;;;;;;;;4919132;29;20365;-76
2023/10/23 04:16:25;;;;;;;6.35;5.18;;;;;;;;;;4918738;29;20040;-75
2023/10/23 04:18:51;;;;;;;6.10;4.70;;;;;;;;;;4887450;29;20412;-76
2023/10/23 04:21:17;;;;;;;8.02;4.10;;;;;;;;;;4902803;29;20054;-76
2023/10/23 04:23:43;;;;;;;4.55;3.85;;;;;;;;;;4918396;29;20039;-76
2023/10/23 04:26:09;;;;;;;4.57;4.10;;;;;;;;;;4918464;29;20118;-76
2023/10/23 04:28:38;;;;;;;4.85;4.00;;;7.90;99.90;;;;;;4918115;29;20036;-76
2023/10/23 04:31:04;;;;;;;4.97;4.28;;;;;;;;;;4902071;29;20114;-76
2023/10/23 04:33:30;;;;;;;6.90;4.30;;;;;;;;;;4918462;29;20454;-76
2023/10/23 04:35:57;;;;;;;4.70;4.20;;;7.90;99.90;;;;;;4917969;29;20051;-76
2023/10/23 04:38:24;;;;;;;6.47;4.70;;;;;;;;;;4915397;29;20056;-76
2023/10/23 04:40:53;;;;;;;6.57;4.30;;;;;;;;;;4902928;29;20047;-75
2023/10/23 04:43:19;;;;;;;5.47;4.20;;;;;;;;;;4918409;29;20099;-79
2023/10/23 04:45:45;;;;;;;5.55;4.40;;;;;;;;;;4918144;29;20078;-80
2023/10/23 04:48:11;;;;;;;6.43;4.70;;;;;;;;;;4902420;29;20040;-79
2023/10/23 04:50:38;;;;;;;5.43;4.72;;;;;;;;;;4917903;29;20492;-79
2023/10/23 04:53:05;;;;;;;8.50;4.15;;;;;;;;;;4902473;29;20039;-76
2023/10/23 04:55:34;;;;;;;5.10;3.75;;;;;;;;;;4917907;29;20036;-76
2023/10/23 04:58:01;;;;;;;4.30;3.80;;;;;;;;;;4916478;29;20492;-75
2023/10/23 05:00:27;;;;;;;5.88;4.35;;;;;;;;;;4902486;29;20047;-76
2023/10/23 05:02:53;;;;;;;3.65;3.30;;;;;;;;;;4917533;29;20076;-76
2023/10/23 05:05:19;;;;;;;5.05;3.20;;;;;;;;;;4918163;29;20431;-76
2023/10/23 05:07:45;;;;;;;4.53;3.40;;;;;;;;;;4886353;29;20046;-76
2023/10/23 05:10:12;;;;;;;4.22;3.17;;;;;;;;;;4917628;29;20472;-76
2023/10/23 05:12:39;;;;;;;3.83;3.00;;;;;;;;;;4917706;29;20084;-76
2023/10/23 05:15:05;;;;;;;7.60;3.28;;;;;;;;;;4917773;29;20043;-76
2023/10/23 05:17:32;;;;;;;4.30;3.28;;;;;;;;;;4918144;29;20384;-76
2023/10/23 05:19:58;;;;;;;4.38;3.63;;;;;;;;;;4917713;29;20039;-75
2023/10/23 05:22:24;;;;;;;4.78;3.60;;;;;;;;;;4915334;29;20040;-76
2023/10/23 05:24:50;;;;;;;5.05;3.70;;;;;;;;;;4901980;29;20035;-79
2023/10/23 05:27:20;;;;;;;4.32;3.85;;;;;;;;;;4917820;29;20112;-79
2023/10/23 05:29:46;;;;;;;6.10;4.35;;;;;;;;;;4917796;29;20083;-79
2023/10/23 05:32:12;;;;;;;5.65;3.95;;;;;;;;;;4917342;29;20130;-79
2023/10/23 05:34:38;;;;;;;4.85;3.55;;;;;;;;;;4920149;29;20039;-79
2023/10/23 05:37:05;;;;;;;7.13;4.15;;;;;;;;;;4917306;29;20074;-81
2023/10/23 05:39:31;;;;;;;5.50;3.90;;;;;;;;;;4917174;29;20055;-81
2023/10/23 05:41:57;;;;;;;7.13;4.22;;;;;;;;;;4916808;29;20043;-81
2023/10/23 05:44:23;;;;;;;6.57;4.10;;;;;;;;;;4934675;29;20086;-81
2023/10/23 05:46:49;;;;;;;6.05;4.03;;;;;;;;;;4917540;29;20067;-81
2023/10/23 05:49:15;;;;;;;4.88;3.95;;;;;;;;;;4917332;29;20047;-82
2023/10/23 05:51:42;;;;;;;7.47;4.22;;;;;;;;;;4877038;29;20040;-81
2023/10/23 05:54:09;;;;;;;5.25;3.63;;;;;;;;;;4901705;29;20091;-81
2023/10/23 05:56:35;;;;;;;6.20;3.88;;;;;;;;;;4901597;29;20067;-83
2023/10/23 05:59:02;;;;;;;5.82;4.10;;;;;;;;;;4900933;29;20116;-81
2023/10/23 06:01:28;;;;;;;7.93;5.22;;;;;;;;;;4894933;29;20039;-80
2023/10/23 06:03:54;;;;;;;6.00;5.00;;;;;;;;;;4901598;29;20507;-80
2023/10/23 06:06:20;;;;;;;6.50;5.07;;;;;;;;;;4922665;29;20043;-80
2023/10/23 06:08:46;;;;;;;5.88;4.38;;;;;;;;;;4902985;29;20043;-81
2023/10/23 06:11:12;;;;;;;7.53;4.97;;;;;;;;;;4887499;29;20043;-81
2023/10/23 06:13:39;;;;;;;6.82;4.72;;;;;;;;;;4904324;29;20044;-81
2023/10/23 06:16:05;;;;;;;6.28;5.00;;;;;;;;;;4899614;29;20044;-78
2023/10/23 06:18:35;;;;;;;9.30;4.95;;;6.90;99.90;;;;;;4899917;29;20107;-81
2023/10/23 06:21:05;;;;;;;5.15;4.50;;;6.90;99.90;;;;;;4900587;29;20051;-80
2023/10/23 06:23:41;;;;;;;9.15;4.78;;;6.90;99.90;;;;;;4915292;29;20118;-81
2023/10/23 06:26:08;;;;;;;6.32;4.45;;;;;;;;;;4905057;29;20133;-72
2023/10/23 06:28:34;;;;;;;6.47;4.65;;;;;;;;;;4918633;29;20487;-80
2023/10/23 06:31:07;;;;;;;5.40;4.78;;;7.10;99.90;;;;;;4918258;29;20044;-80
2023/10/23 06:33:34;;;;;;;6.75;4.80;;;;;;;;;;4918366;29;20048;-81
2023/10/23 06:36:01;;;;;;;5.90;4.90;;;;;;;;;;4918320;29;20050;-81
2023/10/23 06:38:27;;;;;;;7.68;5.55;;;;;;;;;;4918173;29;20048;-80
2023/10/23 06:40:53;;;;;;;6.35;5.47;;;;;;;;;;4895690;29;20870;-81
2023/10/23 06:43:19;;;;;;;7.07;5.03;;;;;;;;;;4907069;29;20463;-82
2023/10/23 06:45:45;;;;;;;13.02;6.05;;;;;;;;;;4904276;29;20130;-82
2023/10/23 06:48:11;;;;;;;10.38;5.20;;;;;;;;;;4896205;29;20044;-82
2023/10/23 06:50:38;;;;;;;6.38;5.40;;;;;;;;;;4916881;29;20035;-82
2023/10/23 06:53:04;;;;;;;7.05;5.00;;;;;;;;;;4908475;29;20122;-82
2023/10/23 06:55:30;;;;;;;7.63;5.10;;;;;;;;;;4905876;29;20043;-82
2023/10/23 06:57:56;;;;;;;8.85;5.38;;;;;;;;;;4921677;29;20126;-82
2023/10/23 07:00:28;;;;;;;9.27;5.82;;;;;;;;;;4886612;29;20036;-83
2023/10/23 07:02:54;;;;;;;8.32;6.20;;;;;;;;;;4915064;29;20046;-82
2023/10/23 07:05:20;;;;;;;7.95;6.75;;;;;;;;;;4909755;29;20052;-82
2023/10/23 07:07:46;;;;;;;9.18;6.43;;;;;;;;;;4921123;29;20052;-82
2023/10/23 07:10:12;;;;;;;9.77;6.50;;;;;;;;;;4905957;29;20040;-80
2023/10/23 07:12:39;;;;;;;9.88;6.20;;;;;;;;;;4909190;29;20385;-84
2023/10/23 07:15:05;;;;;;;9.25;6.50;;;;;;;;;;4890440;29;20044;-82
2023/10/23 07:17:31;;;;;;;8.88;6.88;;;;;;;;;;4923048;29;20036;-82
2023/10/23 07:19:57;;;;;;;9.77;7.13;;;;;;;;;;4887101;29;20044;-82
2023/10/23 07:22:23;;;;;;;10.38;7.32;;;;;;;;;;4902884;29;20418;-82
2023/10/23 07:24:49;;;;;;;10.88;6.53;;;;;;;;;;4905531;29;20051;-83
2023/10/23 07:27:16;;;;;;;12.10;7.00;;;;;;;;;;4920839;29;20036;-82
2023/10/23 07:29:43;;;;;;;11.80;7.43;;;7.50;99.90;;;;;;4894965;29;20104;-82
2023/10/23 07:32:09;;;;;;;10.27;7.30;;;;;;;;;;4902690;29;20098;-82
2023/10/23 07:34:35;;;;;;;11.30;6.97;;;;;;;;;;4878841;29;20070;-83
2023/10/23 07:37:03;;;;;;;10.77;6.53;;;;;;;;;;4887063;29;20048;-82
2023/10/23 07:39:29;;;;;;;9.98;7.38;;;;;;;;;;4902002;29;20064;-82
2023/10/23 07:41:55;;;;;;;8.80;6.63;;;;;;;;;;4871383;29;20040;-83
2023/10/23 07:44:21;;;;;;;9.48;6.97;;;;;;;;;;4886463;29;20111;-83
2023/10/23 07:46:48;;;;;;;11.65;7.57;;;;;;;;;;4902171;29;20126;-83
2023/10/23 07:49:14;;;;;;;14.60;8.43;;;;;;;;;;4870916;29;20552;-83
2023/10/23 07:51:40;;;;;;;10.82;7.68;;;;;;;;;;4886937;29;20059;-82
2023/10/23 07:54:06;;;;;;;13.73;8.38;;;;;;;;;;4909487;29;20130;-83
2023/10/23 07:56:32;;;;;;;12.60;7.53;;;;;;;;;;4903734;29;20132;-84
2023/10/23 07:58:58;;;;;;;10.60;7.43;;;;;;;;;;4904962;29;20046;-85
2023/10/23 08:01:24;;;;;;;14.43;8.05;;;;;;;;;;4921516;29;20519;-85
2023/10/23 08:03:51;;;;;;;9.43;7.70;;;;;;;;;;4905404;29;20511;-83
2023/10/23 08:06:17;;;;;;;9.50;7.15;;;;;;;;;;4894190;29;20454;-84
2023/10/23 08:08:44;;;;;;;9.13;7.18;;;;;;;;;;4897534;29;20043;-82
2023/10/23 08:11:13;;;;;;;14.93;8.13;;;;;;;;;;4901722;29;20396;-82
2023/10/23 08:13:39;;;;;;;14.45;8.85;;;;;;;;;;4901575;29;20493;-82
2023/10/23 08:16:05;;;;;;;11.48;7.88;;;;;;;;;;4901406;29;20079;-83
2023/10/23 08:18:34;;;;;;;11.43;8.05;;;8.40;99.90;;;;;;4901695;29;20135;-83
2023/10/23 08:21:00;;;;;;;9.13;7.45;;;;;;;;;;4886638;29;20405;-83
2023/10/23 08:23:26;;;;;;;14.15;8.18;;;;;;;;;;4901826;29;20146;-83
2023/10/23 08:25:52;;;;;;;12.40;8.27;;;;;;;;;;4901541;29;20044;-82
2023/10/23 08:28:18;;;;;;;8.40;7.50;;;;;;;;;;4870109;29;20511;-79
2023/10/23 08:30:44;;;;;;;9.10;7.35;;;;;;;;;;4900874;29;20103;-78
2023/10/23 08:33:10;;;;;;;12.25;7.60;;;;;;;;;;4885243;29;20040;-78
2023/10/23 08:35:36;;;;;;;10.35;8.05;;;;;;;;;;4885092;29;20052;-78
2023/10/23 08:38:03;;;;;;;10.77;8.35;;;;;;;;;;4888461;29;20056;-77
2023/10/23 08:40:29;;;;;;;12.90;8.07;;;;;;;;;;4885054;29;20044;-78
2023/10/23 08:42:55;;;;;;;12.68;8.20;;;;;;;;;;4885159;29;20047;-78
2023/10/23 08:45:21;;;;;;;10.25;6.72;;;;;;;;;;4900591;29;20142;-78
2023/10/23 08:47:48;;;;;;;10.15;7.70;;;;;;;;;;4900842;29;20047;-78
2023/10/23 08:50:14;;;;;;;15.30;8.32;;;;;;;;;;4900526;29;20040;-78
2023/10/23 08:52:45;;;;;;;12.40;7.50;;;;;;;;;;4900659;29;20040;-78
2023/10/23 08:55:14;;;;;;;13.00;8.60;;;;;;;;;;4901850;29;20052;-78
2023/10/23 08:57:51;;;;;;;13.25;8.68;;;9.40;99.90;;;;;;4900733;29;20040;-78
2023/10/23 09:00:17;;;;;;;9.20;7.70;;;;;;;;;;4901675;29;20514;-78
2023/10/23 09:02:43;;;;;;;12.80;7.88;;;;;;;;;;4900131;29;20040;-78
2023/10/23 09:05:09;;;;;;;12.48;8.13;;;;;;;;;;4884642;29;20516;-78
2023/10/23 09:07:36;;;;;;;9.80;7.50;;;;;;;;;;4885093;29;20066;-78
2023/10/23 09:10:05;;;;;;;13.50;7.30;;;9.70;99.90;;;;;;4900463;29;20051;-77
2023/10/23 09:12:32;;;;;;;8.88;6.80;;;;;;;;;;4885442;29;20078;-77
2023/10/23 09:14:59;;;;;;;9.43;6.50;;;;;;;;;;4900209;29;20051;-77
2023/10/23 09:17:26;;;;;;;12.23;6.90;;;9.90;99.90;;;;;;4884105;29;20040;-77
2023/10/23 09:19:54;;;;;;;11.10;7.50;;;;;;;;;;4900329;29;20382;-77
2023/10/23 09:22:20;;;;;;;12.07;6.63;;;;;;;;;;4900281;29;20147;-77
2023/10/23 09:24:46;;;;;;;10.20;6.82;;;;;;;;;;4899962;29;20183;-77
2023/10/23 09:27:12;;;;;;;12.05;7.00;;;;;;;;;;4884706;29;20044;-76
2023/10/23 09:29:38;;;;;;;8.95;6.60;;;;;;;;;;4900028;29;20058;-76
2023/10/23 09:32:05;;;;;;;9.25;6.57;;;;;;;;;;4885462;29;20493;-77
2023/10/23 09:34:31;;;;;;;10.18;6.15;;;;;;;;;;4884317;29;20155;-77
2023/10/23 09:36:57;;;;;;;9.45;6.43;;;;;;;;;;4884293;29;20051;-72
2023/10/23 09:39:24;;;;;;;11.60;6.95;;;;;;;;;;4897742;29;20048;-77
2023/10/23 09:41:51;;;;;;;14.38;7.68;;;;;;;;;;4913289;29;20447;-78
2023/10/23 09:44:17;;;;;;;10.90;7.15;;;;;;;;;;4918285;29;20134;-78
2023/10/23 09:46:44;;;;;;;9.52;6.68;;;;;;;;;;4903235;29;20048;-78
2023/10/23 09:49:10;;;;;;;8.32;6.28;;;;;;;;;;4903444;29;20047;-78
2023/10/23 09:51:41;;;;;;;9.25;6.68;;;;;;;;;;4903387;29;20130;-76
2023/10/23 09:54:12;;;;;;;9.00;6.45;;;;;;;;;;4914327;29;20044;-77
2023/10/23 09:56:39;;;;;;;9.60;6.88;;;;;;;;;;4917105;29;20047;-77
2023/10/23 09:59:07;;;;;;;9.27;6.72;;;11.30;99.90;;;;;;4894048;29;20485;-77
2023/10/23 10:01:40;;;;;;;8.68;6.53;;;11.40;99.90;;;;;;4901875;29;20059;-77
2023/10/23 10:04:33;;;;;;;7.32;6.18;;;11.60;99.90;;;;;;4913626;29;20051;-77
2023/10/23 10:07:05;;;;;;;11.45;5.72;;;;;;;;;;4918382;29;20107;-77
2023/10/23 10:09:32;;;;;;;8.85;6.35;;;;;;;;;;4918704;29;20060;-77
2023/10/23 10:11:59;;;;;;;9.00;6.03;;;11.90;99.90;;;;;;4919266;29;20035;-77
2023/10/23 10:14:25;;;;;;;9.27;6.18;;;;;;;;;;4915486;29;20044;-77
2023/10/23 10:16:55;;;;;;;7.10;5.53;;;11.90;99.90;;;;;;4917574;29;20060;-77
2023/10/23 10:19:21;;;;;;;8.13;5.75;;;;;;;;;;4903151;29;20036;-76
2023/10/23 10:21:51;;;;;;;12.75;6.68;;;;;;;;;;4918318;29;20048;-77
2023/10/23 10:24:19;;;;;;;8.18;5.20;;;12.10;99.90;;;;;;4917875;29;20035;-77
2023/10/23 10:26:45;;;;;;;9.25;5.05;;;;;;;;;;4901878;29;20048;-77
2023/10/23 10:29:11;;;;;;;9.80;5.40;;;;;;;;;;4902866;29;20039;-77
2023/10/23 10:32:06;;;;;;;6.68;5.53;;;12.40;99.90;;;;;;4920338;29;20040;-77
2023/10/23 10:34:33;;;;;;;5.72;4.55;;;;;;;;;;4905045;29;20078;-77
2023/10/23 10:36:59;;;;;;;6.57;4.70;;;;;;;;;;4904427;29;20036;-77
2023/10/23 10:39:50;;;;;;;9.52;5.00;;;12.60;99.90;;;;;;4920974;29;20052;-77
2023/10/23 10:42:20;;;;;;;6.43;3.60;;;;;;;;;;4906660;29;20039;-77
2023/10/23 10:44:52;;;;;;;6.40;3.88;;;;;;;;;;4921296;29;20453;-77
2023/10/23 10:47:19;;;;;;;5.45;4.30;;;;;;;;;;4905487;29;20071;-77
2023/10/23 10:49:48;;;;;;;6.63;4.18;;;;;;;;;;4921235;29;20194;-77
2023/10/23 10:52:27;;;;;;;6.65;3.90;;;;;;;;;;4904252;29;20044;-77
2023/10/23 10:55:06;;;;;;;8.23;3.83;;;13.10;99.90;;;;;;4889652;29;20051;-77
2023/10/23 10:57:32;;;;;;;9.65;4.00;;;13.20;99.90;;;;;;4905747;29;20139;-77
2023/10/23 10:59:59;;;;;;;6.85;3.55;;;;;;;;;;4905238;29;20038;-77
2023/10/23 11:02:25;;;;;;;8.07;3.95;;;;;;;;;;4921444;29;20051;-77
2023/10/23 11:04:51;;;;;;;9.45;3.58;;;;;;;;;;4889527;29;20244;-82
2023/10/23 11:07:22;;;;;;;4.68;3.20;;;13.10;99.90;;;;;;4920842;29;20461;-82
2023/10/23 11:09:49;;;;;;;9.35;3.33;;;;;;;;;;4905720;29;20043;-81
2023/10/23 11:12:17;;;;;;;11.70;3.30;;;;;;;;;;4905502;29;20047;-80
2023/10/23 11:14:43;;;;;;;17.30;3.80;;;;;;;;;;4921412;29;20044;-82
2023/10/23 11:17:09;;;;;;;7.03;2.85;;;;;;;;;;4921539;29;20039;-82
2023/10/23 11:19:35;;;;;;;6.15;2.47;;;;;;;;;;4921374;29;20098;-81
2023/10/23 11:22:15;;;;;;;5.05;2.22;;;13.40;99.90;;;;;;4906054;29;20090;-82
2023/10/23 11:24:42;;;;;;;5.60;2.88;;;;;;;;;;4888599;29;20060;-81
2023/10/23 11:27:08;;;;;;;3.60;2.38;;;;;;;;;;4888314;29;20095;-81
2023/10/23 11:29:38;;;;;;;5.88;2.70;;;;;;;;;;4890290;29;20082;-80
2023/10/23 11:32:06;;;;;;;3.65;2.20;;;13.60;99.90;;;;;;4906363;29;20063;-81
2023/10/23 11:34:32;;;;;;;5.00;2.58;;;;;;;;;;4921163;29;20052;-80
2023/10/23 11:37:00;;;;;;;4.65;2.55;;;;;;;;;;4920697;29;20040;-81
2023/10/23 11:39:28;;;;;;;6.15;2.15;;;13.80;99.90;;;;;;4917439;29;20495;-80
2023/10/23 11:41:56;;;;;;;9.48;2.20;;;;;;;;;;4917172;29;20603;-79
2023/10/23 11:44:23;;;;;;;3.08;2.10;;;;;;;;;;4924274;29;20412;-81
2023/10/23 11:46:49;;;;;;;3.58;2.15;;;;;;;;;;4921037;29;20126;-80
2023/10/23 11:49:19;;;;;;;2.63;1.88;;;;;;;;;;4905307;29;20492;-80
2023/10/23 11:51:46;;;;;;;6.13;1.90;;;;;;;;;;4920155;29;20400;-79
2023/10/23 11:54:12;;;;;;;5.07;2.00;;;;;;;;;;4919884;29;20044;-80
2023/10/23 11:56:38;;;;;;;2.00;1.45;;;;;;;;;;4920086;29;20045;-81
2023/10/23 11:59:05;;;;;;;2.78;1.58;;;;;;;;;;4904599;29;20044;-80
2023/10/23 12:01:31;;;;;;;3.28;1.60;;;;;;;;;;4920564;29;20035;-81
2023/10/23 12:03:57;;;;;;;4.60;1.48;;;;;;;;;;4923367;29;20040;-80
2023/10/23 12:06:23;;;;;;;2.60;1.30;;;;;;;;;;4925203;29;20042;-81
2023/10/23 12:08:49;;;;;;;3.42;1.40;;;;;;;;;;4922017;29;20515;-80
2023/10/23 12:11:15;;;;;;;1.80;1.63;;;;;;;;;;4920245;29;20043;-80
2023/10/23 12:13:42;;;;;;;6.30;1.77;;;;;;;;;;4916570;29;20559;-80
2023/10/23 12:16:09;;;;;;;3.13;2.10;;;;;;;;;;4919065;29;20452;-82
2023/10/23 12:18:36;;;;;;;4.82;1.88;;;;;;;;;;4900258;29;20377;-82
2023/10/23 12:21:05;;;;;;;2.63;1.40;;;;;;;;;;4884872;29;20044;-82
2023/10/23 12:23:31;;;;;;;2.90;1.75;;;;;;;;;;4894592;29;20067;-81
2023/10/23 12:25:57;;;;;;;1.92;1.40;;;;;;;;;;4917045;29;20176;-82
2023/10/23 12:28:23;;;;;;;2.55;1.58;;;;;;;;;;4881126;29;20405;-81
2023/10/23 12:30:49;;;;;;;2.80;1.20;;;;;;;;;;4887356;29;20052;-81
2023/10/23 12:33:15;;;;;;;2.50;1.55;;;;;;;;;;4915887;29;20130;-82
2023/10/23 12:35:41;;;;;;;5.88;1.55;;;;;;;;;;4905974;29;20535;-81
2023/10/23 12:38:10;;;;;;;2.00;1.33;;;;;;;;;;4904083;29;20055;-75
2023/10/23 12:40:38;;;;;;;4.60;1.40;;;14.60;99.90;;;;;;4903837;29;20044;-75
2023/10/23 12:43:04;;;;;;;4.32;1.55;;;;;;;;;;4919350;29;20051;-76
2023/10/23 12:45:31;;;;;;;3.20;1.65;;;;;;;;;;4919552;29;20052;-77
2023/10/23 12:47:57;;;;;;;5.07;1.60;;;;;;;;;;4919202;29;20374;-75
2023/10/23 12:50:23;;;;;;;4.03;1.67;;;;;;;;;;4919412;29;20037;-76
2023/10/23 12:52:49;;;;;;;2.72;1.58;;;;;;;;;;4903428;29;20047;-76
2023/10/23 12:55:15;;;;;;;3.85;1.80;;;;;;;;;;4918204;29;20050;-77
2023/10/23 12:57:41;;;;;;;3.72;1.60;;;;;;;;;;4886465;29;20051;-76
2023/10/23 13:00:08;;;;;;;4.97;2.22;;;14.50;99.90;;;;;;4902007;29;20042;-76
2023/10/23 13:02:34;;;;;;;4.68;1.92;;;;;;;;;;4900312;29;20099;-76
2023/10/23 13:05:02;;;;;;;4.05;1.77;;;;;;;;;;4917988;29;20480;-76
2023/10/23 13:07:28;;;;;;;2.47;1.63;;;;;;;;;;4899725;29;20040;-76
2023/10/23 13:09:54;;;;;;;5.65;1.50;;;;;;;;;;4895008;29;20048;-76
2023/10/23 13:12:20;;;;;;;3.35;1.63;;;;;;;;;;4918063;29;20039;-76
2023/10/23 13:14:47;;;;;;;2.38;1.40;;;;;;;;;;4917929;29;20048;-76
2023/10/23 13:17:13;;;;;;;4.75;1.58;;;;;;;;;;4902317;29;20028;-77
2023/10/23 13:19:39;;;;;;;3.63;1.63;;;;;;;;;;4901932;29;20091;-76
2023/10/23 13:22:05;;;;;;;2.20;1.70;;;;;;;;;;4901946;29;20032;-76
2023/10/23 13:24:31;;;;;;;4.00;1.83;;;;;;;;;;4917621;29;20042;-76
2023/10/23 13:26:57;;;;;;;4.97;1.95;;;;;;;;;;4917634;29;20374;-76
2023/10/23 13:29:23;;;;;;;2.80;1.77;;;;;;;;;;4917516;29;20054;-81
2023/10/23 13:31:49;;;;;;;8.57;2.33;;;;;;;;;;4917571;29;20043;-79
2023/10/23 13:34:16;;;;;;;6.75;2.17;;;;;;;;;;4917219;29;20047;-80
2023/10/23 13:36:42;;;;;;;4.68;1.95;;;;;;;;;;4918229;29;20437;-80
2023/10/23 13:39:08;;;;;;;7.22;2.00;;;;;;;;;;4917406;29;20130;-80
2023/10/23 13:41:34;;;;;;;3.22;1.80;;;;;;;;;;4917572;29;20510;-80
2023/10/23 13:44:00;;;;;;;4.30;2.10;;;;;;;;;;4917656;29;20050;-79
2023/10/23 13:46:27;;;;;;;4.63;2.30;;;;;;;;;;4916123;29;20368;-80
2023/10/23 13:48:53;;;;;;;4.72;2.40;;;;;;;;;;4902059;29;20051;-81
2023/10/23 13:51:19;;;;;;;5.15;2.60;;;;;;;;;;4900594;29;20042;-79
2023/10/23 13:53:45;;;;;;;5.50;2.90;;;;;;;;;;4917205;29;20044;-79
2023/10/23 13:56:11;;;;;;;5.90;2.80;;;;;;;;;;4914755;29;20122;-79
2023/10/23 13:58:37;;;;;;;4.50;2.80;;;;;;;;;;4900054;29;20036;-79
2023/10/23 14:01:04;;;;;;;4.13;2.50;;;;;;;;;;4901544;29;20039;-79
2023/10/23 14:03:30;;;;;;;6.95;3.60;;;;;;;;;;4894499;29;20130;-80
2023/10/23 14:05:56;;;;;;;4.72;3.03;;;;;;;;;;4888234;29;20476;-77
2023/10/23 14:08:22;;;;;;;4.22;2.83;;;;;;;;;;4905334;29;20111;-76
2023/10/23 14:10:48;;;;;;;4.68;2.63;;;;;;;;;;4921038;29;20081;-76
2023/10/23 14:13:14;;;;;;;3.50;2.72;;;;;;;;;;4920685;29;20500;-76
2023/10/23 14:15:40;;;;;;;4.10;2.80;;;;;;;;;;4920731;29;20099;-76
2023/10/23 14:18:06;;;;;;;3.92;3.05;;;;;;;;;;4905023;29;20083;-76
2023/10/23 14:20:33;;;;;;;5.13;2.80;;;;;;;;;;4920800;29;20496;-74
2023/10/23 14:23:00;;;;;;;9.05;3.10;;;;;;;;;;4920449;29;20106;-76
2023/10/23 14:25:26;;;;;;;6.53;3.40;;;14.10;99.90;;;;;;4905064;29;20047;-76
2023/10/23 14:27:52;;;;;;;8.98;3.80;;;;;;;;;;4904494;29;20054;-76